Terminal Aerodrome Forecast
Issued by NWS

Home | Current Version | Previous Version | Text Only | Print | Product List | Glossary On
Versions: 1 2 3 4 5 6 7 8 9 10 11 12 13 14 15 16 17 18
000
FTAK31 PAJN 081128
TAFAYA
TAF
PAYA 081128Z 0812/0912 07010KT 1SM -SN BR FEW004 BKN025 OVC040
      TEMPO 0812/0816 06010KT 1/4SM +SN FZFG VV002
     FM081700 07010KT 3SM -SN BR FEW004 BKN025 OVC040
     FM081900 06010KT P6SM -SHSN BKN015 OVC025
     FM082200 06010KT P6SM SCT015 OVC025
     FM090200 06007KT P6SM SCT050
      AMD LTD TO CLD VIS AND WIND 0901/0909=

USA.gov is the U.S. government's official web portal to all federal, state and local government web resources and services.